Time;durP1;ratioP1;P1;durP2;ratioP2;P2;SDS_P1;SDS_P2;PMS_P1;PMS_P2;Temp;Humidity;BMP_temperature;BMP_pressure;BME280_temperature;BME280_humidity;BME280_pressure;Samples;Min_cycle;Max_cycle;Signal;HPM_P1;HPM_P2
2023/12/23 00:01:26;;;;;;;11.50;2.60;;;5.60;99.90;;;;;;7362943;19;20024;-75
2023/12/23 00:03:58;;;;;;;20.60;3.60;;;5.60;99.90;;;;;;7363333;19;20015;-75
2023/12/23 00:06:25;;;;;;;13.95;2.60;;;5.60;99.90;;;;;;7355597;19;20016;-76
2023/12/23 00:08:52;;;;;;;19.83;3.17;;;5.80;99.90;;;;;;7358935;19;20641;-67
2023/12/23 00:11:18;;;;;;;21.27;3.17;;;5.80;99.90;;;;;;7364332;19;20019;-67
2023/12/23 00:13:45;;;;;;;15.52;2.95;;;5.80;99.90;;;;;;7355608;19;20171;-67
2023/12/23 00:16:14;;;;;;;14.50;2.63;;;5.80;99.90;;;;;;7363547;19;20035;-67
2023/12/23 00:18:41;;;;;;;14.65;3.10;;;5.80;99.90;;;;;;7356187;19;20023;-67
2023/12/23 00:21:07;;;;;;;16.08;3.50;;;5.90;99.90;;;;;;7362090;19;20377;-67
2023/12/23 00:23:37;;;;;;;13.07;2.78;;;5.80;99.90;;;;;;7358226;19;20018;-68
2023/12/23 00:26:03;;;;;;;10.65;3.00;;;5.90;99.90;;;;;;7352528;19;20035;-67
2023/12/23 00:28:31;;;;;;;22.13;3.28;;;5.90;99.90;;;;;;7355977;19;20025;-75
2023/12/23 00:30:57;;;;;;;18.95;2.50;;;5.90;99.90;;;;;;7364043;19;20378;-75
2023/12/23 00:33:25;;;;;;;14.38;3.78;;;5.90;99.90;;;;;;7355294;19;21161;-76
2023/12/23 00:35:51;;;;;;;14.95;3.63;;;5.90;99.90;;;;;;7366489;19;20030;-75
2023/12/23 00:38:19;;;;;;;21.00;3.15;;;6.00;99.90;;;;;;7357203;19;20026;-68
2023/12/23 00:40:45;;;;;;;16.75;3.10;;;6.00;99.90;;;;;;7356799;19;20044;-68
2023/12/23 00:43:31;;;;;;;13.18;2.58;;;6.00;99.90;;;;;;7356916;19;20514;-68
2023/12/23 00:45:58;;;;;;;15.93;2.83;;;6.10;99.90;;;;;;7356107;19;20561;-68
2023/12/23 00:48:26;;;;;;;14.45;2.95;;;6.10;99.90;;;;;;7363358;19;20023;-68
2023/12/23 00:50:53;;;;;;;13.88;2.17;;;6.20;99.90;;;;;;7367228;19;20014;-68
2023/12/23 00:53:19;;;;;;;15.15;2.50;;;6.20;99.90;;;;;;7360311;19;20026;-75
2023/12/23 00:55:46;;;;;;;15.43;2.20;;;6.20;99.90;;;;;;7360149;19;20019;-75
2023/12/23 00:58:12;;;;;;;18.45;2.88;;;6.20;99.90;;;;;;7367791;19;20424;-75
2023/12/23 01:00:38;;;;;;;13.77;2.47;;;6.20;99.90;;;;;;7359623;19;20022;-75
2023/12/23 01:03:25;;;;;;;15.25;3.00;;;6.20;99.90;;;;;;7361651;19;20023;-75
2023/12/23 01:05:51;;;;;;;16.48;2.80;;;6.20;99.90;;;;;;7362735;19;20027;-75
2023/12/23 01:08:18;;;;;;;15.90;3.70;;;6.20;99.90;;;;;;7364357;19;20033;-75
2023/12/23 01:10:44;;;;;;;21.30;3.08;;;6.20;99.90;;;;;;7361961;19;20029;-75
2023/12/23 01:13:10;;;;;;;14.15;2.40;;;6.20;99.90;;;;;;7365680;19;20010;-69
2023/12/23 01:15:37;;;;;;;10.30;2.00;;;6.20;99.90;;;;;;7357477;19;20019;-68
2023/12/23 01:18:03;;;;;;;16.10;2.67;;;6.20;99.90;;;;;;7360828;19;20074;-68
2023/12/23 01:20:30;;;;;;;14.50;2.63;;;6.30;99.90;;;;;;7362116;19;20135;-68
2023/12/23 01:22:56;;;;;;;13.38;2.72;;;6.30;99.90;;;;;;7357696;19;20490;-67
2023/12/23 01:25:22;;;;;;;17.65;3.55;;;6.30;99.90;;;;;;7360696;19;20026;-67
2023/12/23 01:27:49;;;;;;;18.20;2.53;;;6.30;99.90;;;;;;7352341;19;20370;-75
2023/12/23 01:30:16;;;;;;;18.92;2.80;;;6.30;99.90;;;;;;7366613;19;20044;-74
2023/12/23 01:32:42;;;;;;;18.13;3.03;;;6.30;99.90;;;;;;7358200;19;20014;-75
2023/12/23 01:35:28;;;;;;;16.70;3.00;;;6.40;99.90;;;;;;7357583;19;20678;-74
2023/12/23 01:37:54;;;;;;;14.75;2.38;;;6.40;99.90;;;;;;7355654;19;20482;-68
2023/12/23 01:40:21;;;;;;;14.90;2.35;;;6.50;99.90;;;;;;7364225;19;20054;-74
2023/12/23 01:42:47;;;;;;;9.98;1.92;;;6.50;99.90;;;;;;7362841;19;20022;-74
2023/12/23 01:45:13;;;;;;;18.23;3.28;;;6.50;99.90;;;;;;7357564;19;20054;-68
2023/12/23 01:47:43;;;;;;;17.10;2.28;;;6.50;99.90;;;;;;7365217;19;20619;-67
2023/12/23 01:50:10;;;;;;;11.20;2.22;;;6.50;99.90;;;;;;7368607;19;20035;-68
2023/12/23 01:52:39;;;;;;;17.75;2.53;;;6.50;99.90;;;;;;7376609;19;20019;-74
2023/12/23 01:55:08;;;;;;;14.10;2.83;;;6.50;99.90;;;;;;7372153;19;20015;-74
2023/12/23 01:57:34;;;;;;;13.95;2.38;;;6.50;99.90;;;;;;7370926;19;20023;-74
2023/12/23 02:00:01;;;;;;;14.55;2.92;;;6.40;99.90;;;;;;7374965;19;20035;-74
2023/12/23 02:02:30;;;;;;;10.70;2.47;;;6.40;99.90;;;;;;7376090;19;20067;-74
2023/12/23 02:04:57;;;;;;;13.25;2.55;;;6.30;99.90;;;;;;7375263;19;20018;-68
2023/12/23 02:07:45;;;;;;;13.57;2.30;;;6.30;99.90;;;;;;7372441;19;20022;-68
2023/12/23 02:10:13;;;;;;;12.07;1.98;;;6.30;99.90;;;;;;7373889;19;20054;-68
2023/12/23 02:12:58;;;;;;;12.25;2.63;;;6.40;99.90;;;;;;7375189;19;20023;-67
2023/12/23 02:15:28;;;;;;;12.55;2.28;;;6.40;99.90;;;;;;7375552;19;20021;-74
2023/12/23 02:17:59;;;;;;;16.42;2.80;;;6.40;99.90;;;;;;7375094;19;20023;-67
2023/12/23 02:20:26;;;;;;;12.50;1.70;;;6.40;99.90;;;;;;7373291;19;20018;-67
2023/12/23 02:22:52;;;;;;;15.02;2.40;;;6.40;99.90;;;;;;7374328;19;20648;-74
2023/12/23 02:25:23;;;;;;;18.48;2.75;;;6.40;99.90;;;;;;7376570;19;20792;-74
2023/12/23 02:28:02;;;;;;;13.10;1.92;;;6.40;99.90;;;;;;7373897;19;20040;-74
2023/12/23 02:30:30;;;;;;;16.50;2.25;;;6.40;99.90;;;;;;7373072;19;20059;-74
2023/12/23 02:32:57;;;;;;;9.80;1.95;;;6.40;99.90;;;;;;7376440;19;20054;-74
2023/12/23 02:35:26;;;;;;;10.18;1.42;;;6.40;99.90;;;;;;7374057;19;20056;-74
2023/12/23 02:37:54;;;;;;;9.10;1.95;;;6.40;99.90;;;;;;7374346;19;20604;-67
2023/12/23 02:40:21;;;;;;;10.95;1.90;;;6.30;99.90;;;;;;7372219;19;20304;-68
2023/12/23 02:42:47;;;;;;;12.82;1.90;;;6.30;99.90;;;;;;7371495;19;21039;-67
2023/12/23 02:45:33;;;;;;;8.40;1.73;;;6.30;99.90;;;;;;7370600;19;20025;-68
2023/12/23 02:47:59;;;;;;;9.90;1.70;;;6.20;99.90;;;;;;7370642;19;20018;-68
2023/12/23 02:50:28;;;;;;;10.75;1.92;;;6.20;99.90;;;;;;7362720;19;20348;-68
2023/12/23 02:52:54;;;;;;;11.93;1.98;;;6.20;99.90;;;;;;7370630;19;20022;-68
2023/12/23 02:55:20;;;;;;;13.18;2.42;;;6.10;99.90;;;;;;7370937;19;20498;-74
2023/12/23 02:57:47;;;;;;;12.10;2.30;;;6.10;99.90;;;;;;7372064;19;20077;-74
2023/12/23 03:00:13;;;;;;;9.38;2.08;;;6.00;99.90;;;;;;7369238;19;20651;-74
2023/12/23 03:02:39;;;;;;;12.68;2.30;;;6.00;99.90;;;;;;7374122;19;20930;-74
2023/12/23 03:05:06;;;;;;;10.02;2.00;;;6.00;99.90;;;;;;7377234;19;20117;-74
2023/12/23 03:07:32;;;;;;;11.63;1.48;;;6.00;99.90;;;;;;7370716;19;20018;-74
2023/12/23 03:09:59;;;;;;;17.58;2.10;;;5.90;99.90;;;;;;7372433;19;20676;-68
2023/12/23 03:12:25;;;;;;;11.65;1.95;;;5.90;99.90;;;;;;7371995;19;20627;-68
2023/12/23 03:14:51;;;;;;;12.43;1.83;;;5.90;99.90;;;;;;7371487;19;20026;-75
2023/12/23 03:17:17;;;;;;;11.15;1.77;;;5.90;99.90;;;;;;7368590;19;20022;-75
2023/12/23 03:19:44;;;;;;;12.00;1.85;;;5.90;99.90;;;;;;7369134;19;20022;-74
2023/12/23 03:22:10;;;;;;;17.17;2.40;;;5.90;99.90;;;;;;7370584;19;20023;-74
2023/12/23 03:24:42;;;;;;;7.63;1.77;;;5.90;99.90;;;;;;7369709;19;20033;-74
2023/12/23 03:27:08;;;;;;;14.15;1.67;;;5.90;99.90;;;;;;7368600;19;20014;-75
2023/12/23 03:29:35;;;;;;;12.88;1.70;;;5.90;99.90;;;;;;7370147;19;20029;-75
2023/12/23 03:32:02;;;;;;;8.57;2.28;;;5.90;99.90;;;;;;7366660;19;20014;-74
2023/12/23 03:34:29;;;;;;;7.65;1.90;;;5.90;99.90;;;;;;7371087;19;20054;-75
2023/12/23 03:36:55;;;;;;;11.02;2.05;;;5.90;99.90;;;;;;7373215;19;20010;-75
2023/12/23 03:39:21;;;;;;;13.00;1.63;;;5.90;99.90;;;;;;7371732;19;20019;-75
2023/12/23 03:41:47;;;;;;;9.73;1.83;;;5.80;99.90;;;;;;7371354;19;20023;-74
2023/12/23 03:44:13;;;;;;;10.25;1.77;;;5.80;99.90;;;;;;7371348;19;20022;-74
2023/12/23 03:46:40;;;;;;;17.27;2.28;;;5.90;99.90;;;;;;7373128;19;20018;-74
2023/12/23 03:49:06;;;;;;;11.38;1.77;;;5.90;99.90;;;;;;7372387;19;20033;-67
2023/12/23 03:51:32;;;;;;;10.07;1.60;;;5.80;99.90;;;;;;7369137;19;20018;-73
2023/12/23 03:53:58;;;;;;;12.70;1.83;;;5.80;99.90;;;;;;7373527;19;20018;-73
2023/12/23 03:56:25;;;;;;;11.60;1.80;;;5.80;99.90;;;;;;7370661;19;20480;-65
2023/12/23 03:58:52;;;;;;;10.27;1.60;;;5.80;99.90;;;;;;7365300;19;20057;-65
2023/12/23 04:01:18;;;;;;;11.43;1.67;;;5.90;99.90;;;;;;7366964;19;20060;-73
2023/12/23 04:03:45;;;;;;;19.38;2.15;;;5.80;99.90;;;;;;7368895;19;20030;-66
2023/12/23 04:06:12;;;;;;;12.10;2.00;;;5.80;99.90;;;;;;7367506;19;20029;-73
2023/12/23 04:08:40;;;;;;;8.88;1.52;;;5.80;99.90;;;;;;7365592;19;20026;-73
2023/12/23 04:11:07;;;;;;;16.30;2.03;;;5.80;99.90;;;;;;7364419;19;20802;-73
2023/12/23 04:13:34;;;;;;;8.52;1.65;;;5.80;99.90;;;;;;7366278;19;20022;-73
2023/12/23 04:16:04;;;;;;;11.55;2.17;;;5.80;99.90;;;;;;7369378;19;20014;-73
2023/12/23 04:18:31;;;;;;;8.43;1.70;;;5.80;99.90;;;;;;7367985;19;20018;-66
2023/12/23 04:20:57;;;;;;;13.48;1.35;;;5.80;99.90;;;;;;7369549;19;20022;-71
2023/12/23 04:23:24;;;;;;;14.13;1.83;;;5.80;99.90;;;;;;7368889;19;20019;-66
2023/12/23 04:25:51;;;;;;;10.90;1.42;;;5.80;99.90;;;;;;7366842;19;20366;-72
2023/12/23 04:28:24;;;;;;;8.95;1.30;;;5.80;99.90;;;;;;7366892;19;20022;-72
2023/12/23 04:30:54;;;;;;;8.85;1.30;;;5.80;99.90;;;;;;7371350;19;20015;-72
2023/12/23 04:33:42;;;;;;;11.15;1.73;;;5.80;99.90;;;;;;7365400;19;20758;-72
2023/12/23 04:36:08;;;;;;;9.00;1.50;;;5.80;99.90;;;;;;7367751;19;20014;-65
2023/12/23 04:38:35;;;;;;;7.60;1.58;;;5.80;99.90;;;;;;7365849;19;20575;-71
2023/12/23 04:41:01;;;;;;;9.95;1.73;;;5.80;99.90;;;;;;7369904;19;20045;-72
2023/12/23 04:43:30;;;;;;;8.60;1.65;;;5.80;99.90;;;;;;7364863;19;20018;-71
2023/12/23 04:45:57;;;;;;;9.35;1.98;;;5.80;99.90;;;;;;7366433;19;20098;-71
2023/12/23 04:48:26;;;;;;;11.40;2.05;;;5.80;99.90;;;;;;7366978;19;20021;-65
2023/12/23 04:50:53;;;;;;;7.18;1.80;;;5.80;99.90;;;;;;7363265;19;20018;-71
2023/12/23 04:53:21;;;;;;;12.55;1.88;;;5.80;99.90;;;;;;7368414;19;20033;-71
2023/12/23 04:55:49;;;;;;;7.78;1.70;;;5.80;99.90;;;;;;7362251;19;20799;-65
2023/12/23 04:58:15;;;;;;;6.88;1.55;;;5.80;99.90;;;;;;7368682;19;20029;-65
2023/12/23 05:00:41;;;;;;;7.90;1.80;;;5.90;99.90;;;;;;7360094;19;20019;-65
2023/12/23 05:03:10;;;;;;;6.72;1.55;;;5.90;99.90;;;;;;7364420;19;20042;-67
2023/12/23 05:05:40;;;;;;;8.05;2.00;;;5.90;99.90;;;;;;7357884;19;20022;-67
2023/12/23 05:08:10;;;;;;;8.38;1.70;;;5.90;99.90;;;;;;7364191;19;20018;-67
2023/12/23 05:10:36;;;;;;;5.93;1.60;;;5.90;99.90;;;;;;7359586;19;20639;-66
2023/12/23 05:13:03;;;;;;;7.28;2.00;;;5.90;99.90;;;;;;7358452;19;20535;-71
2023/12/23 05:15:29;;;;;;;9.05;1.90;;;6.00;99.90;;;;;;7358649;19;20635;-71
2023/12/23 05:17:55;;;;;;;7.47;1.45;;;5.90;99.90;;;;;;7361802;19;20025;-71
2023/12/23 05:20:21;;;;;;;8.38;2.00;;;6.00;99.90;;;;;;7363286;19;20044;-66
2023/12/23 05:22:49;;;;;;;6.80;1.63;;;6.00;99.90;;;;;;7359351;19;20362;-66
2023/12/23 05:25:15;;;;;;;4.45;1.60;;;6.00;99.90;;;;;;7375000;19;20034;-66
2023/12/23 05:27:42;;;;;;;6.22;1.80;;;6.00;99.90;;;;;;7371012;19;20018;-68
2023/12/23 05:30:09;;;;;;;5.10;1.92;;;6.00;99.90;;;;;;7380696;19;20788;-71
2023/12/23 05:32:35;;;;;;;9.68;2.03;;;5.90;99.90;;;;;;7368775;19;20018;-66
2023/12/23 05:35:02;;;;;;;8.35;1.90;;;6.00;99.90;;;;;;7370924;19;20044;-67
2023/12/23 05:37:29;;;;;;;3.35;1.80;;;6.10;99.90;;;;;;7373728;19;20023;-68
2023/12/23 05:39:56;;;;;;;4.32;1.73;;;6.10;99.90;;;;;;7373518;19;20014;-66
2023/12/23 05:42:24;;;;;;;3.13;1.70;;;6.10;99.90;;;;;;7378309;19;20026;-66
2023/12/23 05:44:50;;;;;;;5.22;1.67;;;6.10;99.90;;;;;;7369409;19;20018;-71
2023/12/23 05:47:16;;;;;;;3.13;1.58;;;6.20;99.90;;;;;;7375649;19;20022;-71
2023/12/23 05:49:42;;;;;;;5.47;1.90;;;6.20;99.90;;;;;;7377642;19;20025;-71
2023/12/23 05:52:09;;;;;;;4.22;1.95;;;6.40;99.90;;;;;;7377871;19;20463;-71
2023/12/23 05:54:35;;;;;;;8.18;2.65;;;6.60;99.90;;;;;;7378101;19;20036;-70
2023/12/23 05:57:01;;;;;;;9.93;3.55;;;6.80;99.90;;;;;;7367802;19;20513;-67
2023/12/23 05:59:27;;;;;;;15.15;5.13;;;7.30;99.90;;;;;;7379957;19;20023;-67
2023/12/23 06:01:53;;;;;;;21.77;6.65;;;7.60;99.90;;;;;;7376290;19;20014;-72
2023/12/23 06:04:20;;;;;;;23.00;5.53;;;7.90;99.90;;;;;;7377911;19;20021;-71
2023/12/23 06:06:46;;;;;;;20.73;6.72;;;8.30;99.90;;;;;;7373257;19;20362;-72
2023/12/23 06:09:12;;;;;;;20.80;6.63;;;8.40;99.90;;;;;;7374046;19;20082;-72
2023/12/23 06:11:41;;;;;;;28.55;7.00;;;8.60;99.90;;;;;;7371325;19;20070;-72
2023/12/23 06:14:11;;;;;;;17.73;6.05;;;8.60;99.90;;;;;;7371056;19;20288;-72
2023/12/23 06:16:39;;;;;;;23.48;6.07;;;8.70;99.90;;;;;;7372108;19;20026;-67
2023/12/23 06:19:07;;;;;;;19.20;6.80;;;8.80;99.90;;;;;;7372234;19;20610;-67
2023/12/23 06:21:34;;;;;;;24.90;7.03;;;8.80;99.90;;;;;;7373311;19;20786;-67
2023/12/23 06:24:00;;;;;;;19.17;5.22;;;8.90;99.90;;;;;;7372125;19;20496;-72
2023/12/23 06:26:27;;;;;;;20.20;5.82;;;8.80;99.90;;;;;;7370985;19;20017;-71
2023/12/23 06:28:54;;;;;;;20.02;6.25;;;8.90;99.90;;;;;;7368539;19;20391;-72
2023/12/23 06:31:22;;;;;;;22.50;7.05;;;8.80;99.90;;;;;;7368646;19;20022;-67
2023/12/23 06:33:48;;;;;;;22.73;5.03;;;9.00;99.90;;;;;;7367092;19;20762;-67
2023/12/23 06:36:16;;;;;;;20.77;5.03;;;8.90;99.90;;;;;;7366151;19;20078;-67
2023/12/23 06:38:42;;;;;;;23.38;5.70;;;9.00;99.90;;;;;;7366930;19;20113;-67
2023/12/23 06:41:10;;;;;;;24.20;6.60;;;9.00;99.90;;;;;;7370407;19;20032;-66
2023/12/23 06:43:36;;;;;;;19.00;6.30;;;9.10;99.90;;;;;;7361635;19;20018;-67
2023/12/23 06:46:03;;;;;;;21.23;5.70;;;9.30;99.90;;;;;;7373900;19;20015;-72
2023/12/23 06:48:29;;;;;;;28.63;6.03;;;9.20;99.90;;;;;;7366257;19;20038;-72
2023/12/23 06:50:55;;;;;;;26.70;6.05;;;9.30;99.90;;;;;;7369888;19;20042;-72
2023/12/23 06:53:21;;;;;;;29.25;5.88;;;9.30;99.90;;;;;;7366953;19;20065;-67
2023/12/23 06:55:47;;;;;;;23.38;6.20;;;9.30;99.90;;;;;;7369469;19;20386;-69
2023/12/23 06:58:14;;;;;;;23.92;5.82;;;9.30;99.90;;;;;;7367823;19;20027;-66
2023/12/23 07:00:40;;;;;;;23.08;5.53;;;9.40;99.90;;;;;;7364020;19;20675;-67
2023/12/23 07:03:07;;;;;;;19.88;4.88;;;9.30;99.90;;;;;;7368646;19;20022;-66
2023/12/23 07:05:33;;;;;;;17.23;5.10;;;9.40;99.90;;;;;;7366468;19;20025;-67
2023/12/23 07:08:00;;;;;;;26.08;5.25;;;9.40;99.90;;;;;;7376191;19;20031;-67
2023/12/23 07:10:26;;;;;;;24.00;5.65;;;9.40;99.90;;;;;;7376510;19;20030;-67
2023/12/23 07:12:52;;;;;;;21.13;4.80;;;9.40;99.90;;;;;;7369082;19;20736;-66
2023/12/23 07:15:39;;;;;;;25.48;6.25;;;9.40;99.90;;;;;;7368863;19;20022;-67
2023/12/23 07:18:06;;;;;;;28.95;5.45;;;9.40;99.90;;;;;;7367725;19;20030;-72
2023/12/23 07:20:33;;;;;;;21.65;4.80;;;9.40;99.90;;;;;;7370458;19;20494;-71
2023/12/23 07:22:59;;;;;;;28.70;7.65;;;9.40;99.90;;;;;;7367105;19;20042;-62
2023/12/23 07:25:45;;;;;;;22.23;4.93;;;9.40;99.90;;;;;;7367045;19;20648;-68
2023/12/23 07:28:12;;;;;;;25.40;6.45;;;9.40;99.90;;;;;;7365878;19;20025;-64
2023/12/23 07:30:44;;;;;;;19.17;5.72;;;9.40;99.90;;;;;;7365150;19;20033;-65
2023/12/23 07:33:30;;;;;;;35.33;6.57;;;9.40;99.90;;;;;;7366767;19;20025;-65
2023/12/23 07:35:57;;;;;;;27.23;5.47;;;9.40;99.90;;;;;;7369183;19;20022;-65
2023/12/23 07:38:24;;;;;;;22.02;5.43;;;9.40;99.90;;;;;;7366490;19;20044;-66
2023/12/23 07:40:50;;;;;;;20.67;5.55;;;9.40;99.90;;;;;;7367408;19;20775;-66
2023/12/23 07:43:16;;;;;;;21.33;4.47;;;9.40;99.90;;;;;;7368224;19;20024;-65
2023/12/23 07:45:42;;;;;;;27.55;6.20;;;9.50;99.90;;;;;;7364862;19;20031;-65
2023/12/23 07:48:09;;;;;;;24.80;6.82;;;9.50;99.90;;;;;;7367314;19;20022;-66
2023/12/23 07:50:35;;;;;;;27.25;5.07;;;9.50;99.90;;;;;;7365707;19;20696;-65
2023/12/23 07:53:01;;;;;;;25.65;5.75;;;9.40;99.90;;;;;;7369755;19;20119;-66
2023/12/23 07:55:28;;;;;;;29.02;5.88;;;9.40;99.90;;;;;;7368521;19;20037;-72
2023/12/23 07:57:54;;;;;;;16.20;3.03;;;9.40;99.90;;;;;;7367600;19;20014;-67
2023/12/23 08:00:20;;;;;;;12.98;6.78;;;9.10;99.90;;;;;;7369409;19;20062;-72
2023/12/23 08:02:46;;;;;;;8.25;1.70;;;8.90;99.90;;;;;;7364970;19;20015;-72
2023/12/23 08:05:13;;;;;;;9.18;4.32;;;8.70;99.90;;;;;;7371562;19;20813;-65
2023/12/23 08:07:42;;;;;;;5.70;1.40;;;8.50;99.90;;;;;;7362866;19;20029;-72
2023/12/23 08:10:08;;;;;;;2.70;0.88;;;8.30;99.90;;;;;;7367773;19;20010;-65
2023/12/23 08:12:54;;;;;;;6.38;2.13;;;8.10;99.90;;;;;;7367311;19;20010;-72
2023/12/23 08:15:20;;;;;;;11.15;5.35;;;7.90;99.90;;;;;;7370836;19;20847;-72
2023/12/23 08:17:47;;;;;;;7.95;1.75;;;7.90;99.90;;;;;;7365251;19;20019;-73
2023/12/23 08:20:13;;;;;;;6.45;1.65;;;7.90;99.90;;;;;;7372474;19;20014;-72
2023/12/23 08:22:40;;;;;;;8.48;4.75;;;7.90;99.90;;;;;;7361688;19;20014;-72
2023/12/23 08:25:09;;;;;;;12.27;5.93;;;7.80;99.90;;;;;;7366683;19;20029;-72
2023/12/23 08:27:38;;;;;;;10.23;5.50;;;7.80;99.90;;;;;;7363760;19;20018;-73
2023/12/23 08:30:06;;;;;;;5.78;1.35;;;7.70;99.90;;;;;;7367168;19;20466;-72
2023/12/23 08:32:32;;;;;;;8.50;1.90;;;7.70;99.90;;;;;;7367108;19;20022;-72
2023/12/23 08:34:59;;;;;;;7.85;2.83;;;7.70;99.90;;;;;;7370474;19;20053;-71
2023/12/23 08:37:25;;;;;;;6.05;2.25;;;7.60;99.90;;;;;;7372404;19;20022;-71
2023/12/23 08:39:53;;;;;;;39.97;28.88;;;7.50;99.90;;;;;;7367883;19;20105;-65
2023/12/23 08:42:20;;;;;;;7.68;4.18;;;7.30;99.90;;;;;;7369861;19;20456;-66
2023/12/23 08:44:48;;;;;;;6.35;3.60;;;7.10;99.90;;;;;;7363359;19;20014;-73
2023/12/23 08:47:14;;;;;;;5.03;2.60;;;7.10;99.90;;;;;;7371133;19;20019;-66
2023/12/23 08:49:41;;;;;;;4.10;2.33;;;7.00;99.90;;;;;;7369037;19;20026;-66
2023/12/23 08:52:08;;;;;;;1.90;1.27;;;6.80;99.90;;;;;;7366656;19;20022;-66
2023/12/23 08:54:54;;;;;;;2.72;1.63;;;6.70;99.90;;;;;;7361532;19;20067;-66
2023/12/23 08:57:21;;;;;;;4.65;3.30;;;6.60;99.90;;;;;;7365834;19;20470;-65
2023/12/23 08:59:47;;;;;;;2.35;1.63;;;6.50;99.90;;;;;;7352318;19;20078;-73
2023/12/23 09:02:13;;;;;;;11.75;10.50;;;6.50;99.90;;;;;;7364412;19;20777;-72
2023/12/23 09:04:39;;;;;;;3.90;2.40;;;6.40;99.90;;;;;;7360824;19;20019;-72
2023/12/23 09:07:08;;;;;;;5.65;3.00;;;6.30;99.90;;;;;;7364179;19;20333;-72
2023/12/23 09:09:40;;;;;;;4.53;3.30;;;6.30;99.90;;;;;;7364944;19;20690;-73
2023/12/23 09:12:07;;;;;;;2.35;1.70;;;6.30;99.90;;;;;;7361773;19;20038;-73
2023/12/23 09:14:34;;;;;;;3.72;1.45;;;6.20;99.90;;;;;;7362273;19;20049;-73
2023/12/23 09:17:00;;;;;;;2.63;1.52;;;6.20;99.90;;;;;;7365266;19;20652;-72
2023/12/23 09:19:47;;;;;;;5.05;3.08;;;6.20;99.90;;;;;;7362052;19;20018;-73
2023/12/23 09:22:13;;;;;;;4.95;4.43;;;6.30;99.90;;;;;;7360039;19;20022;-72
2023/12/23 09:25:00;;;;;;;6.97;4.43;;;6.30;99.90;;;;;;7359617;19;20018;-72
2023/12/23 09:27:28;;;;;;;5.03;3.85;;;6.20;99.90;;;;;;7362134;19;20014;-72
2023/12/23 09:29:56;;;;;;;2.28;1.50;;;6.20;99.90;;;;;;7361989;19;20019;-72
2023/12/23 09:32:22;;;;;;;2.05;1.42;;;6.30;99.90;;;;;;7360092;19;20025;-73
2023/12/23 09:34:53;;;;;;;2.78;1.50;;;6.30;99.90;;;;;;7363265;19;20014;-71
2023/12/23 09:37:20;;;;;;;3.40;1.40;;;6.30;99.90;;;;;;7358774;19;20042;-72
2023/12/23 09:39:46;;;;;;;4.00;1.65;;;6.30;99.90;;;;;;7366032;19;20014;-72
2023/12/23 09:42:34;;;;;;;3.35;1.52;;;6.40;99.90;;;;;;7358956;19;20033;-66
2023/12/23 09:45:01;;;;;;;7.85;1.98;;;6.30;99.90;;;;;;7361944;19;20109;-66
2023/12/23 09:47:28;;;;;;;7.35;2.30;;;6.40;99.90;;;;;;7363871;19;20022;-66
2023/12/23 09:49:54;;;;;;;4.25;2.25;;;6.40;99.90;;;;;;7358003;19;20022;-70
2023/12/23 09:52:21;;;;;;;7.82;2.67;;;6.50;99.90;;;;;;7357456;19;20427;-66
2023/12/23 09:54:51;;;;;;;3.70;2.30;;;6.50;99.90;;;;;;7363755;19;20178;-66
2023/12/23 09:57:19;;;;;;;7.10;2.90;;;6.60;99.90;;;;;;7363177;19;20022;-66
2023/12/23 09:59:50;;;;;;;6.80;3.80;;;6.60;99.90;;;;;;7359272;19;20038;-73
2023/12/23 10:02:17;;;;;;;7.82;3.30;;;6.60;99.90;;;;;;7360785;19;20025;-74
2023/12/23 10:04:43;;;;;;;7.03;2.80;;;6.70;99.90;;;;;;7359710;19;20019;-66
2023/12/23 10:07:09;;;;;;;7.10;3.67;;;6.70;99.90;;;;;;7362090;19;20034;-66
2023/12/23 10:09:36;;;;;;;8.68;4.20;;;6.70;99.90;;;;;;7354706;19;20474;-68
2023/12/23 10:12:02;;;;;;;10.73;4.45;;;6.70;99.90;;;;;;7369098;19;20101;-66
2023/12/23 10:14:28;;;;;;;7.30;3.75;;;6.70;99.90;;;;;;7368909;19;20015;-66
2023/12/23 10:16:56;;;;;;;7.75;3.60;;;6.70;99.90;;;;;;7372729;19;20712;-66
2023/12/23 10:19:23;;;;;;;5.50;2.97;;;6.70;99.90;;;;;;7366026;19;20010;-66
2023/12/23 10:22:09;;;;;;;6.40;2.53;;;6.60;99.90;;;;;;7370162;19;20021;-66
2023/12/23 10:24:39;;;;;;;5.78;2.70;;;6.70;99.90;;;;;;7368586;19;20094;-66
2023/12/23 10:27:05;;;;;;;9.15;3.22;;;6.80;99.90;;;;;;7369856;19;20019;-66
2023/12/23 10:29:56;;;;;;;9.63;3.47;;;6.80;99.90;;;;;;7373345;19;20029;-69
2023/12/23 10:32:27;;;;;;;8.80;3.60;;;6.80;99.90;;;;;;7370289;19;20026;-66
2023/12/23 10:35:00;;;;;;;13.40;3.15;;;6.90;99.90;;;;;;7374119;19;20019;-73
2023/12/23 10:37:49;;;;;;;13.88;3.63;;;7.00;99.90;;;;;;7367323;19;20088;-66
2023/12/23 10:40:21;;;;;;;15.10;3.78;;;7.10;99.90;;;;;;7371174;19;20017;-66
2023/12/23 10:42:50;;;;;;;21.25;5.15;;;7.30;99.90;;;;;;7373283;19;20029;-66
2023/12/23 10:45:17;;;;;;;28.60;6.47;;;7.60;99.90;;;;;;7370156;19;20015;-66
2023/12/23 10:47:44;;;;;;;26.05;5.35;;;7.90;99.90;;;;;;7371933;19;20048;-73
2023/12/23 10:50:10;;;;;;;26.90;6.30;;;8.30;99.90;;;;;;7369374;19;20055;-74
2023/12/23 10:52:41;;;;;;;38.58;7.15;;;8.50;99.90;;;;;;7372925;19;20500;-73
2023/12/23 10:55:10;;;;;;;31.20;6.40;;;8.70;99.90;;;;;;7372014;19;20056;-74
2023/12/23 10:57:37;;;;;;;41.47;6.65;;;8.80;99.90;;;;;;7372867;19;20022;-66
2023/12/23 11:00:05;;;;;;;35.70;6.53;;;9.00;99.90;;;;;;7371219;19;20460;-66
2023/12/23 11:02:35;;;;;;;29.40;6.07;;;9.20;99.90;;;;;;7370031;19;20568;-66
2023/12/23 11:05:08;;;;;;;25.17;4.88;;;9.20;99.90;;;;;;7367578;19;20138;-67
2023/12/23 11:07:41;;;;;;;29.25;5.93;;;9.30;99.90;;;;;;7372857;19;20043;-67
2023/12/23 11:10:09;;;;;;;33.47;5.63;;;9.40;99.90;;;;;;7371461;19;20082;-67
2023/12/23 11:12:36;;;;;;;67.88;39.97;;;9.40;99.90;;;;;;7372171;19;20409;-63
2023/12/23 11:15:03;;;;;;;24.55;4.47;;;9.50;99.90;;;;;;7371530;19;20038;-75
2023/12/23 11:17:30;;;;;;;23.92;4.28;;;9.50;99.90;;;;;;7372696;19;20022;-68
2023/12/23 11:20:00;;;;;;;28.55;5.35;;;9.50;99.90;;;;;;7372033;19;20596;-68
2023/12/23 11:22:28;;;;;;;22.08;4.18;;;9.70;99.90;;;;;;7373302;19;20014;-68
2023/12/23 11:24:55;;;;;;;21.52;3.90;;;9.70;99.90;;;;;;7367864;19;20018;-68
2023/12/23 11:27:36;;;;;;;17.58;3.95;;;9.70;99.90;;;;;;7371328;19;20398;-75
2023/12/23 11:30:10;;;;;;;22.70;4.32;;;9.80;99.90;;;;;;7368495;19;20626;-68
2023/12/23 11:32:41;;;;;;;30.67;4.90;;;9.80;99.90;;;;;;7374845;19;20018;-75
2023/12/23 11:35:09;;;;;;;20.27;4.43;;;9.80;99.90;;;;;;7369810;19;20033;-76
2023/12/23 11:38:00;;;;;;;20.60;4.30;;;9.80;99.90;;;;;;7374007;19;20769;-68
2023/12/23 11:40:30;;;;;;;24.10;5.03;;;9.80;99.90;;;;;;7371568;19;20452;-76
2023/12/23 11:42:57;;;;;;;28.65;4.13;;;9.80;99.90;;;;;;7371495;19;20540;-75
2023/12/23 11:45:24;;;;;;;15.65;4.82;;;9.90;99.90;;;;;;7373454;19;20052;-68
2023/12/23 11:47:50;;;;;;;18.80;4.05;;;9.80;99.90;;;;;;7367933;19;20014;-69
2023/12/23 11:50:16;;;;;;;18.05;4.50;;;9.90;99.90;;;;;;7372854;19;20576;-76
2023/12/23 11:52:44;;;;;;;27.95;4.75;;;9.90;99.90;;;;;;7371409;19;20014;-77
2023/12/23 11:55:12;;;;;;;25.80;4.70;;;9.80;99.90;;;;;;7371601;19;20018;-76
2023/12/23 11:57:38;;;;;;;31.15;4.53;;;9.80;99.90;;;;;;7374136;19;20015;-77
2023/12/23 12:00:05;;;;;;;23.20;4.22;;;9.80;99.90;;;;;;7372814;19;20362;-76
2023/12/23 12:02:33;;;;;;;36.15;4.85;;;9.80;99.90;;;;;;7368108;19;20420;-76
2023/12/23 12:04:59;;;;;;;23.27;4.78;;;9.80;99.90;;;;;;7371126;19;20098;-77
2023/12/23 12:07:25;;;;;;;25.75;4.85;;;9.90;99.90;;;;;;7369636;19;20417;-76
2023/12/23 12:09:52;;;;;;;20.70;4.00;;;9.90;99.90;;;;;;7369103;19;20386;-69
2023/12/23 12:12:18;;;;;;;20.60;4.32;;;10.00;99.90;;;;;;7370911;19;20022;-68
2023/12/23 12:14:45;;;;;;;17.20;4.05;;;10.10;99.90;;;;;;7371671;19;20015;-68
2023/12/23 12:17:14;;;;;;;23.40;4.50;;;10.10;99.90;;;;;;7372814;19;20018;-70
2023/12/23 12:19:41;;;;;;;21.45;4.32;;;10.10;99.90;;;;;;7370646;19;20022;-68
2023/12/23 12:22:09;;;;;;;22.30;3.53;;;10.20;99.90;;;;;;7371727;19;20050;-68
2023/12/23 12:24:37;;;;;;;17.85;4.25;;;10.20;99.90;;;;;;7374046;19;20026;-68
2023/12/23 12:27:04;;;;;;;22.25;3.92;;;10.20;99.90;;;;;;7369919;19;20029;-68
2023/12/23 12:29:30;;;;;;;18.30;3.85;;;10.20;99.90;;;;;;7367463;19;20026;-68
2023/12/23 12:31:59;;;;;;;21.63;4.40;;;10.30;99.90;;;;;;7367195;19;20038;-68
2023/12/23 12:34:27;;;;;;;20.80;3.95;;;10.30;99.90;;;;;;7368562;19;20018;-67
2023/12/23 12:36:57;;;;;;;21.95;6.05;;;10.30;99.90;;;;;;7369520;19;20022;-68
2023/12/23 12:39:25;;;;;;;18.00;3.58;;;10.30;99.90;;;;;;7374523;19;20380;-68
2023/12/23 12:41:52;;;;;;;16.08;4.32;;;10.30;99.90;;;;;;7372182;19;20022;-69
2023/12/23 12:44:21;;;;;;;15.52;3.40;;;10.20;99.90;;;;;;7370249;19;20050;-68
2023/12/23 12:46:56;;;;;;;18.65;4.15;;;10.20;99.90;;;;;;7370880;19;20064;-68
2023/12/23 12:49:23;;;;;;;21.85;4.95;;;10.20;99.90;;;;;;7370217;19;20036;-68
2023/12/23 12:51:51;;;;;;;23.13;4.68;;;10.10;99.90;;;;;;7370832;19;20022;-68
2023/12/23 12:54:18;;;;;;;17.38;3.70;;;10.10;99.90;;;;;;7369647;19;20078;-68
2023/12/23 12:57:05;;;;;;;21.77;4.70;;;10.00;99.90;;;;;;7368980;19;20022;-68